createdAt,value
2018-04-01T12:02:38.039Z,11.25
2018-04-01T12:03:37.923Z,686.25
2018-04-01T12:04:56.559Z,669.38
2018-04-01T12:05:56.453Z,675.00
2018-04-01T12:06:56.320Z,669.38
2018-04-01T12:07:56.284Z,669.38
2018-04-01T12:08:56.224Z,663.75
2018-04-01T12:09:56.128Z,669.38
2018-04-01T12:10:56.074Z,601.88
2018-04-01T12:11:55.977Z,635.63
2018-04-01T12:12:55.902Z,0.00
2018-04-01T17:46:49.717Z,0.00
2018-04-01T17:47:49.469Z,0.00
2018-04-01T17:48:49.308Z,28.13
2018-04-01T17:49:49.332Z,0.00
2018-04-01T17:50:49.139Z,0.00
2018-04-01T17:51:49.661Z,33.75
2018-04-01T17:52:49.961Z,28.13
2018-04-01T17:53:49.101Z,28.13
2018-04-01T17:54:48.831Z,22.50
2018-04-01T17:55:48.107Z,16.88
2018-04-01T17:56:47.919Z,16.88
2018-04-01T17:57:48.028Z,11.25
2018-04-01T17:58:50.262Z,11.25
2018-04-01T17:59:47.895Z,11.25
2018-04-01T18:00:48.415Z,11.25
2018-04-01T18:01:47.694Z,11.25
2018-04-01T18:02:49.728Z,5.63
2018-04-01T18:03:47.640Z,5.63
2018-04-01T18:04:47.542Z,5.63
2018-04-01T18:05:47.299Z,5.63
2018-04-01T18:06:47.354Z,5.63
2018-04-01T18:07:47.114Z,0.00
2018-04-01T18:08:47.168Z,0.00
2018-04-01T18:09:47.280Z,0.00
2018-04-01T18:10:46.982Z,0.00
2018-04-01T18:11:49.129Z,0.00
2018-04-01T18:12:46.933Z,0.00
2018-04-01T18:13:46.843Z,0.00
2018-04-01T18:14:47.170Z,0.00
2018-04-01T18:15:46.681Z,0.00
2018-04-01T18:16:49.047Z,0.00
2018-04-01T18:17:46.611Z,0.00
2018-04-01T18:18:48.633Z,0.00
2018-04-01T18:19:46.407Z,0.00
2018-04-01T18:20:48.645Z,0.00
2018-04-01T18:21:46.284Z,0.00
2018-04-01T18:22:46.199Z,0.00
2018-04-01T18:23:46.110Z,0.00
2018-04-01T18:24:45.989Z,0.00
2018-04-01T18:25:46.167Z,0.00
2018-04-01T18:26:45.844Z,0.00
2018-04-01T18:27:45.725Z,0.00
2018-04-01T18:28:45.579Z,0.00
2018-04-01T18:29:45.508Z,0.00
2018-04-01T18:30:45.490Z,0.00
2018-04-01T18:31:45.740Z,0.00
2018-04-01T18:32:45.375Z,0.00
2018-04-01T18:33:45.288Z,0.00
2018-04-01T18:34:47.623Z,0.00
